MCREC weather

Aviosuperficie "Madonna di Loreto"
Recanati, Marche, Italy

Public forecast

Using degrees Celsius for public forecast. Weather courtesy of forecast.io.

METAR (pilot weather report)

Closest report is Ancona Falconara Airport, 14.0 nm (25.9 km) NW. Retrieved 2019/04/24 00:50 UTC (39 minutes ago):

LIPY 240050Z AUTO VRB02KT 8000 FEW084 SCT096 BKN240 13/12 Q1010

TAF (pilot weather forecast)

Forecast is more than 12 hours old.

Closest forecast is Ancona Falconara Airport, 14.0 nm (25.9 km) NW. Retrieved 2019/04/23 00:21 UTC (1 day ago):

TAF LIPY 232300Z 2400/2424 VRB05KT 9999 SCT030 BECMG 2410/2412 12010KT BECMG 2418/2420 VRB05KT